sensor_id;sensor_type;location;lat;lon;timestamp;pressure;altitude;pressure_sealevel;temperature;humidity
40592;BME280;26301;42.832;23.918;2023-04-27T00:01:42;92827.09;;;6.44;69.54
40592;BME280;26301;42.832;23.918;2023-04-27T00:04:09;92794.34;;;6.27;68.25
40592;BME280;26301;42.832;23.918;2023-04-27T00:06:35;92820.25;;;6.37;69.55
40592;BME280;26301;42.832;23.918;2023-04-27T00:09:01;92808.09;;;6.33;70.28
40592;BME280;26301;42.832;23.918;2023-04-27T00:11:28;92830.13;;;6.52;69.63
40592;BME280;26301;42.832;23.918;2023-04-27T00:13:55;92832.63;;;6.59;69.32
40592;BME280;26301;42.832;23.918;2023-04-27T00:16:21;92802.31;;;6.37;68.17
40592;BME280;26301;42.832;23.918;2023-04-27T00:18:48;92816.47;;;6.70;66.36
40592;BME280;26301;42.832;23.918;2023-04-27T00:21:14;92830.31;;;6.69;68.32
40592;BME280;26301;42.832;23.918;2023-04-27T00:23:40;92812.50;;;6.44;67.30
40592;BME280;26301;42.832;23.918;2023-04-27T00:26:06;92842.91;;;6.59;68.13
40592;BME280;26301;42.832;23.918;2023-04-27T00:28:32;92842.09;;;6.58;68.36
40592;BME280;26301;42.832;23.918;2023-04-27T00:30:58;92841.75;;;6.55;66.98
40592;BME280;26301;42.832;23.918;2023-04-27T00:33:27;92841.84;;;6.48;66.96
40592;BME280;26301;42.832;23.918;2023-04-27T00:35:58;92831.09;;;6.39;65.95
40592;BME280;26301;42.832;23.918;2023-04-27T00:38:25;92810.22;;;6.36;66.77
40592;BME280;26301;42.832;23.918;2023-04-27T00:40:51;92842.59;;;6.67;68.80
40592;BME280;26301;42.832;23.918;2023-04-27T00:43:17;92845.59;;;6.64;68.62
40592;BME280;26301;42.832;23.918;2023-04-27T00:45:44;92858.84;;;6.61;68.44
40592;BME280;26301;42.832;23.918;2023-04-27T00:48:10;92833.81;;;6.45;68.53
40592;BME280;26301;42.832;23.918;2023-04-27T00:50:37;92855.16;;;6.57;68.12
40592;BME280;26301;42.832;23.918;2023-04-27T00:53:04;92818.75;;;6.48;67.51
40592;BME280;26301;42.832;23.918;2023-04-27T00:55:32;92812.56;;;6.37;69.12
40592;BME280;26301;42.832;23.918;2023-04-27T00:57:59;92828.75;;;6.38;66.69
40592;BME280;26301;42.832;23.918;2023-04-27T01:00:27;92858.94;;;6.54;67.65
40592;BME280;26301;42.832;23.918;2023-04-27T01:02:54;92825.34;;;6.44;66.23
40592;BME280;26301;42.832;23.918;2023-04-27T01:05:20;92851.59;;;6.58;66.44
40592;BME280;26301;42.832;23.918;2023-04-27T01:07:48;92848.03;;;6.59;68.63
40592;BME280;26301;42.832;23.918;2023-04-27T01:10:14;92857.97;;;6.67;70.36
40592;BME280;26301;42.832;23.918;2023-04-27T01:12:40;92851.97;;;6.73;70.16
40592;BME280;26301;42.832;23.918;2023-04-27T01:15:07;92811.09;;;6.60;69.94
40592;BME280;26301;42.832;23.918;2023-04-27T01:17:33;92831.78;;;6.77;69.13
40592;BME280;26301;42.832;23.918;2023-04-27T01:20:00;92809.56;;;6.71;67.37
40592;BME280;26301;42.832;23.918;2023-04-27T01:22:27;92846.56;;;6.93;66.63
40592;BME280;26301;42.832;23.918;2023-04-27T01:24:55;92846.00;;;6.91;68.53
40592;BME280;26301;42.832;23.918;2023-04-27T01:27:22;92847.94;;;6.96;69.49
40592;BME280;26301;42.832;23.918;2023-04-27T01:29:48;92851.72;;;6.93;67.63
40592;BME280;26301;42.832;23.918;2023-04-27T01:32:14;92826.56;;;6.83;69.86
40592;BME280;26301;42.832;23.918;2023-04-27T01:34:40;92847.16;;;6.95;67.87
40592;BME280;26301;42.832;23.918;2023-04-27T01:37:06;92859.78;;;7.08;66.22
40592;BME280;26301;42.832;23.918;2023-04-27T01:39:33;92855.44;;;7.09;66.15
40592;BME280;26301;42.832;23.918;2023-04-27T01:41:59;92815.94;;;6.80;66.99
40592;BME280;26301;42.832;23.918;2023-04-27T01:44:27;92837.97;;;6.87;67.29
40592;BME280;26301;42.832;23.918;2023-04-27T01:46:54;92851.72;;;6.93;69.38
40592;BME280;26301;42.832;23.918;2023-04-27T01:49:19;92860.03;;;7.07;67.12
40592;BME280;26301;42.832;23.918;2023-04-27T01:51:46;92851.06;;;7.09;64.95
40592;BME280;26301;42.832;23.918;2023-04-27T01:54:12;92859.59;;;7.10;63.78
40592;BME280;26301;42.832;23.918;2023-04-27T01:56:38;92854.97;;;7.00;62.71
40592;BME280;26301;42.832;23.918;2023-04-27T01:59:04;92864.56;;;6.93;65.31
40592;BME280;26301;42.832;23.918;2023-04-27T02:01:30;92832.59;;;6.77;65.24
40592;BME280;26301;42.832;23.918;2023-04-27T02:03:56;92856.28;;;6.91;69.32
40592;BME280;26301;42.832;23.918;2023-04-27T02:06:22;92848.66;;;6.84;65.45
40592;BME280;26301;42.832;23.918;2023-04-27T02:08:48;92855.28;;;6.92;63.47
40592;BME280;26301;42.832;23.918;2023-04-27T02:11:14;92832.59;;;6.77;63.79
40592;BME280;26301;42.832;23.918;2023-04-27T02:13:40;92858.63;;;6.93;65.36
40592;BME280;26301;42.832;23.918;2023-04-27T02:16:07;92844.88;;;6.87;67.22
40592;BME280;26301;42.832;23.918;2023-04-27T02:18:33;92859.88;;;7.02;68.15
40592;BME280;26301;42.832;23.918;2023-04-27T02:21:00;92869.94;;;7.03;72.20
40592;BME280;26301;42.832;23.918;2023-04-27T02:23:27;92833.84;;;6.86;71.84
40592;BME280;26301;42.832;23.918;2023-04-27T02:25:54;92838.94;;;6.75;66.83
40592;BME280;26301;42.832;23.918;2023-04-27T02:28:29;92845.31;;;6.84;65.31
40592;BME280;26301;42.832;23.918;2023-04-27T02:31:01;92870.94;;;7.02;62.96
40592;BME280;26301;42.832;23.918;2023-04-27T02:33:27;92871.81;;;6.96;63.89
40592;BME280;26301;42.832;23.918;2023-04-27T02:35:55;92869.00;;;6.86;63.73
40592;BME280;26301;42.832;23.918;2023-04-27T02:38:21;92850.63;;;6.71;66.31
40592;BME280;26301;42.832;23.918;2023-04-27T02:40:57;92846.59;;;6.63;65.47
40592;BME280;26301;42.832;23.918;2023-04-27T02:43:23;92843.09;;;6.57;66.86
40592;BME280;26301;42.832;23.918;2023-04-27T02:45:49;92880.00;;;6.75;65.28
40592;BME280;26301;42.832;23.918;2023-04-27T02:48:15;92856.16;;;6.56;66.63
40592;BME280;26301;42.832;23.918;2023-04-27T02:50:42;92882.56;;;6.75;66.64
40592;BME280;26301;42.832;23.918;2023-04-27T02:53:09;92868.25;;;6.67;66.17
40592;BME280;26301;42.832;23.918;2023-04-27T02:55:36;92883.34;;;6.75;67.40
40592;BME280;26301;42.832;23.918;2023-04-27T02:58:02;92881.56;;;6.76;66.89
40592;BME280;26301;42.832;23.918;2023-04-27T03:00:28;92851.19;;;6.43;67.85
40592;BME280;26301;42.832;23.918;2023-04-27T03:02:55;92850.63;;;6.40;70.23
40592;BME280;26301;42.832;23.918;2023-04-27T03:05:21;92885.66;;;6.65;69.81
40592;BME280;26301;42.832;23.918;2023-04-27T03:07:49;92883.31;;;6.63;68.96
40592;BME280;26301;42.832;23.918;2023-04-27T03:10:15;92884.31;;;6.62;67.32
40592;BME280;26301;42.832;23.918;2023-04-27T03:12:41;92859.16;;;6.53;67.17
40592;BME280;26301;42.832;23.918;2023-04-27T03:15:07;92862.72;;;6.52;68.03
40592;BME280;26301;42.832;23.918;2023-04-27T03:17:34;92886.09;;;6.62;69.31
40592;BME280;26301;42.832;23.918;2023-04-27T03:20:01;92859.66;;;6.43;71.30
40592;BME280;26301;42.832;23.918;2023-04-27T03:22:28;92858.09;;;6.42;71.06
40592;BME280;26301;42.832;23.918;2023-04-27T03:24:54;92890.56;;;6.67;70.74
40592;BME280;26301;42.832;23.918;2023-04-27T03:27:22;92879.03;;;6.57;72.30
40592;BME280;26301;42.832;23.918;2023-04-27T03:29:50;92895.13;;;6.64;73.09
40592;BME280;26301;42.832;23.918;2023-04-27T03:32:19;92897.91;;;6.63;74.61
40592;BME280;26301;42.832;23.918;2023-04-27T03:34:45;92878.41;;;6.44;72.92
40592;BME280;26301;42.832;23.918;2023-04-27T03:37:12;92881.06;;;6.37;73.45
40592;BME280;26301;42.832;23.918;2023-04-27T03:39:38;92913.19;;;6.39;74.01
40592;BME280;26301;42.832;23.918;2023-04-27T03:42:05;92917.91;;;6.24;75.48
40592;BME280;26301;42.832;23.918;2023-04-27T03:44:31;92914.25;;;6.13;77.97
40592;BME280;26301;42.832;23.918;2023-04-27T03:46:58;92911.59;;;6.02;76.71
40592;BME280;26301;42.832;23.918;2023-04-27T03:49:25;92883.69;;;5.68;77.17
40592;BME280;26301;42.832;23.918;2023-04-27T03:51:52;92912.97;;;5.79;75.93
40592;BME280;26301;42.832;23.918;2023-04-27T03:54:18;92918.94;;;5.73;76.74
40592;BME280;26301;42.832;23.918;2023-04-27T03:56:45;92922.97;;;5.62;77.16
40592;BME280;26301;42.832;23.918;2023-04-27T03:59:13;92925.31;;;5.64;76.90
40592;BME280;26301;42.832;23.918;2023-04-27T04:01:39;92827.31;;;5.00;77.30
40592;BME280;26301;42.832;23.918;2023-04-27T04:04:05;92891.28;;;5.32;78.01
40592;BME280;26301;42.832;23.918;2023-04-27T04:06:32;92906.50;;;5.26;78.09
40592;BME280;26301;42.832;23.918;2023-04-27T04:08:58;92927.84;;;5.45;78.70
40592;BME280;26301;42.832;23.918;2023-04-27T04:11:24;92918.38;;;5.46;79.42
40592;BME280;26301;42.832;23.918;2023-04-27T04:13:50;92911.56;;;5.33;79.75
40592;BME280;26301;42.832;23.918;2023-04-27T04:16:16;92912.19;;;5.28;79.04
40592;BME280;26301;42.832;23.918;2023-04-27T04:18:42;92938.28;;;5.44;79.21
40592;BME280;26301;42.832;23.918;2023-04-27T04:21:09;92899.81;;;5.25;78.27
40592;BME280;26301;42.832;23.918;2023-04-27T04:23:35;92948.63;;;5.56;79.40
40592;BME280;26301;42.832;23.918;2023-04-27T04:26:03;92939.44;;;5.48;78.63
40592;BME280;26301;42.832;23.918;2023-04-27T04:28:29;92920.81;;;5.34;79.84
40592;BME280;26301;42.832;23.918;2023-04-27T04:30:55;92919.81;;;5.35;80.08
40592;BME280;26301;42.832;23.918;2023-04-27T04:33:21;92904.50;;;5.28;80.67
40592;BME280;26301;42.832;23.918;2023-04-27T04:35:49;92948.59;;;5.62;80.80
40592;BME280;26301;42.832;23.918;2023-04-27T04:38:15;92944.47;;;5.61;79.33
40592;BME280;26301;42.832;23.918;2023-04-27T04:40:41;92914.03;;;5.46;78.44
40592;BME280;26301;42.832;23.918;2023-04-27T04:43:07;92916.59;;;5.46;79.55
40592;BME280;26301;42.832;23.918;2023-04-27T04:45:33;92951.25;;;5.74;79.16
40592;BME280;26301;42.832;23.918;2023-04-27T04:47:59;92959.28;;;5.84;79.66
40592;BME280;26301;42.832;23.918;2023-04-27T04:50:26;92962.78;;;5.90;79.00
40592;BME280;26301;42.832;23.918;2023-04-27T04:52:52;92966.88;;;5.98;78.13
40592;BME280;26301;42.832;23.918;2023-04-27T04:55:18;92956.00;;;6.02;78.20
40592;BME280;26301;42.832;23.918;2023-04-27T04:57:45;92933.84;;;5.83;79.03
40592;BME280;26301;42.832;23.918;2023-04-27T05:00:11;92934.97;;;5.93;78.42
40592;BME280;26301;42.832;23.918;2023-04-27T05:02:39;92937.88;;;5.97;77.56
40592;BME280;26301;42.832;23.918;2023-04-27T05:05:06;92945.31;;;6.05;77.48
40592;BME280;26301;42.832;23.918;2023-04-27T05:07:32;92970.31;;;6.28;77.80
40592;BME280;26301;42.832;23.918;2023-04-27T05:09:58;92980.91;;;6.38;77.75
40592;BME280;26301;42.832;23.918;2023-04-27T05:12:24;92954.38;;;6.26;77.51
40592;BME280;26301;42.832;23.918;2023-04-27T05:14:51;92977.41;;;6.51;75.43
40592;BME280;26301;42.832;23.918;2023-04-27T05:17:18;92984.41;;;6.62;74.94
40592;BME280;26301;42.832;23.918;2023-04-27T05:19:44;92979.03;;;6.64;74.77
40592;BME280;26301;42.832;23.918;2023-04-27T05:22:09;92961.06;;;6.64;75.83
40592;BME280;26301;42.832;23.918;2023-04-27T05:24:38;92991.84;;;6.82;72.00
40592;BME280;26301;42.832;23.918;2023-04-27T05:27:04;92957.09;;;6.68;70.99
40592;BME280;26301;42.832;23.918;2023-04-27T05:29:30;92940.69;;;6.69;68.88
40592;BME280;26301;42.832;23.918;2023-04-27T05:31:56;92956.16;;;6.81;68.47
40592;BME280;26301;42.832;23.918;2023-04-27T05:34:22;92972.31;;;7.00;67.36
40592;BME280;26301;42.832;23.918;2023-04-27T05:36:49;92989.75;;;7.09;66.76
40592;BME280;26301;42.832;23.918;2023-04-27T05:39:15;92986.56;;;7.14;64.90
40592;BME280;26301;42.832;23.918;2023-04-27T05:41:41;92979.28;;;7.11;63.82
40592;BME280;26301;42.832;23.918;2023-04-27T05:44:08;92993.28;;;7.27;65.90
40592;BME280;26301;42.832;23.918;2023-04-27T05:46:35;92991.31;;;7.29;66.58
40592;BME280;26301;42.832;23.918;2023-04-27T05:49:01;92987.94;;;7.28;66.76
40592;BME280;26301;42.832;23.918;2023-04-27T05:51:28;92994.22;;;7.32;66.34
40592;BME280;26301;42.832;23.918;2023-04-27T05:53:54;92998.38;;;7.45;62.98
40592;BME280;26301;42.832;23.918;2023-04-27T05:56:20;92970.78;;;7.41;61.12
40592;BME280;26301;42.832;23.918;2023-04-27T05:58:47;92999.97;;;7.58;62.19
40592;BME280;26301;42.832;23.918;2023-04-27T06:01:14;92998.56;;;7.62;62.96
40592;BME280;26301;42.832;23.918;2023-04-27T06:03:40;93006.00;;;7.52;61.24
40592;BME280;26301;42.832;23.918;2023-04-27T06:06:06;93008.59;;;7.64;62.08
40592;BME280;26301;42.832;23.918;2023-04-27T06:08:32;92979.84;;;7.55;65.02
40592;BME280;26301;42.832;23.918;2023-04-27T06:11:01;92996.13;;;7.79;64.05
40592;BME280;26301;42.832;23.918;2023-04-27T06:13:29;93006.66;;;7.89;58.18
40592;BME280;26301;42.832;23.918;2023-04-27T06:15:56;92992.88;;;7.72;56.07
40592;BME280;26301;42.832;23.918;2023-04-27T06:18:22;93005.63;;;7.78;57.09
40592;BME280;26301;42.832;23.918;2023-04-27T06:20:48;93005.28;;;7.75;57.71
40592;BME280;26301;42.832;23.918;2023-04-27T06:23:14;92969.97;;;7.70;53.80
40592;BME280;26301;42.832;23.918;2023-04-27T06:25:40;92995.34;;;7.90;56.88
40592;BME280;26301;42.832;23.918;2023-04-27T06:28:06;93005.19;;;7.93;57.73
40592;BME280;26301;42.832;23.918;2023-04-27T06:30:33;92969.41;;;7.80;55.71
40592;BME280;26301;42.832;23.918;2023-04-27T06:32:59;92984.69;;;7.63;53.75
40592;BME280;26301;42.832;23.918;2023-04-27T06:35:25;92989.69;;;7.46;54.61
40592;BME280;26301;42.832;23.918;2023-04-27T06:37:51;92985.97;;;7.42;55.31
40592;BME280;26301;42.832;23.918;2023-04-27T06:40:17;93009.09;;;7.42;53.72
40592;BME280;26301;42.832;23.918;2023-04-27T06:42:43;93014.16;;;7.49;54.22
40592;BME280;26301;42.832;23.918;2023-04-27T06:45:10;93005.94;;;7.59;54.72
40592;BME280;26301;42.832;23.918;2023-04-27T06:47:37;93016.00;;;7.72;54.29
40592;BME280;26301;42.832;23.918;2023-04-27T06:50:04;93004.94;;;7.71;52.96
40592;BME280;26301;42.832;23.918;2023-04-27T06:52:31;92984.78;;;7.56;55.09
40592;BME280;26301;42.832;23.918;2023-04-27T06:54:58;92971.13;;;7.44;53.96
40592;BME280;26301;42.832;23.918;2023-04-27T06:57:24;92979.91;;;7.37;52.85
40592;BME280;26301;42.832;23.918;2023-04-27T06:59:50;93018.78;;;7.59;53.73
40592;BME280;26301;42.832;23.918;2023-04-27T07:02:17;93017.31;;;7.63;53.92
40592;BME280;26301;42.832;23.918;2023-04-27T07:04:43;92998.13;;;7.65;54.34
40592;BME280;26301;42.832;23.918;2023-04-27T07:07:09;92984.81;;;7.68;54.67
40592;BME280;26301;42.832;23.918;2023-04-27T07:09:36;93011.06;;;8.12;51.81
40592;BME280;26301;42.832;23.918;2023-04-27T07:12:02;92987.78;;;8.31;53.81
40592;BME280;26301;42.832;23.918;2023-04-27T07:14:28;92986.09;;;8.60;54.46
40592;BME280;26301;42.832;23.918;2023-04-27T07:16:55;92997.25;;;8.89;52.95
40592;BME280;26301;42.832;23.918;2023-04-27T07:19:20;92994.28;;;9.09;51.54
40592;BME280;26301;42.832;23.918;2023-04-27T07:21:46;93013.13;;;9.38;51.39
40592;BME280;26301;42.832;23.918;2023-04-27T07:24:13;93006.53;;;9.59;50.85
40592;BME280;26301;42.832;23.918;2023-04-27T07:26:40;93018.44;;;9.77;51.00
40592;BME280;26301;42.832;23.918;2023-04-27T07:29:06;93019.97;;;9.61;52.05
40592;BME280;26301;42.832;23.918;2023-04-27T07:31:34;92984.50;;;9.51;50.64
40592;BME280;26301;42.832;23.918;2023-04-27T07:34:00;93015.69;;;9.67;49.48
40592;BME280;26301;42.832;23.918;2023-04-27T07:36:27;93012.13;;;9.39;49.06
40592;BME280;26301;42.832;23.918;2023-04-27T07:38:54;93014.75;;;9.27;50.42
40592;BME280;26301;42.832;23.918;2023-04-27T07:41:21;93014.25;;;9.59;50.08
40592;BME280;26301;42.832;23.918;2023-04-27T07:43:48;92985.31;;;9.85;49.57
40592;BME280;26301;42.832;23.918;2023-04-27T07:46:17;93015.75;;;10.34;48.12
40592;BME280;26301;42.832;23.918;2023-04-27T07:48:43;92991.88;;;10.44;49.09
40592;BME280;26301;42.832;23.918;2023-04-27T07:51:09;92986.50;;;10.67;47.83
40592;BME280;26301;42.832;23.918;2023-04-27T07:53:37;93007.53;;;10.98;46.91
40592;BME280;26301;42.832;23.918;2023-04-27T07:56:04;92975.84;;;10.81;45.32
40592;BME280;26301;42.832;23.918;2023-04-27T07:58:31;93010.44;;;11.24;45.98
40592;BME280;26301;42.832;23.918;2023-04-27T08:00:56;93008.59;;;11.46;48.01
40592;BME280;26301;42.832;23.918;2023-04-27T08:03:23;93010.00;;;11.10;43.84
40592;BME280;26301;42.832;23.918;2023-04-27T08:05:48;93009.22;;;10.65;46.60
40592;BME280;26301;42.832;23.918;2023-04-27T08:08:14;92991.97;;;10.71;46.66
40592;BME280;26301;42.832;23.918;2023-04-27T08:10:41;93019.75;;;11.03;46.57
40592;BME280;26301;42.832;23.918;2023-04-27T08:13:07;92994.03;;;11.13;46.05
40592;BME280;26301;42.832;23.918;2023-04-27T08:15:35;92979.41;;;11.24;46.06
40592;BME280;26301;42.832;23.918;2023-04-27T08:18:01;93007.25;;;10.94;44.47
40592;BME280;26301;42.832;23.918;2023-04-27T08:20:27;92972.41;;;10.75;47.63
40592;BME280;26301;42.832;23.918;2023-04-27T08:22:54;92993.31;;;10.95;46.69
40592;BME280;26301;42.832;23.918;2023-04-27T08:25:20;92984.47;;;10.91;44.44
40592;BME280;26301;42.832;23.918;2023-04-27T08:27:46;93004.50;;;11.23;44.28
40592;BME280;26301;42.832;23.918;2023-04-27T08:30:13;92976.13;;;11.28;43.74
40592;BME280;26301;42.832;23.918;2023-04-27T08:32:39;93019.72;;;11.19;46.33
40592;BME280;26301;42.832;23.918;2023-04-27T08:35:05;92983.09;;;10.84;44.01
40592;BME280;26301;42.832;23.918;2023-04-27T08:37:31;93009.84;;;11.16;47.06
40592;BME280;26301;42.832;23.918;2023-04-27T08:39:57;93016.16;;;11.26;44.40
40592;BME280;26301;42.832;23.918;2023-04-27T08:42:24;93018.75;;;11.26;44.75
40592;BME280;26301;42.832;23.918;2023-04-27T08:44:51;93021.56;;;11.24;43.34
40592;BME280;26301;42.832;23.918;2023-04-27T08:47:17;93008.44;;;11.31;43.78
40592;BME280;26301;42.832;23.918;2023-04-27T08:49:43;92988.81;;;11.08;43.81
40592;BME280;26301;42.832;23.918;2023-04-27T08:52:11;93013.81;;;11.02;42.65
40592;BME280;26301;42.832;23.918;2023-04-27T08:54:37;92976.59;;;10.59;43.17
40592;BME280;26301;42.832;23.918;2023-04-27T08:57:13;92957.09;;;10.68;44.68
40592;BME280;26301;42.832;23.918;2023-04-27T08:59:42;93009.34;;;10.97;45.15
40592;BME280;26301;42.832;23.918;2023-04-27T09:02:19;93017.38;;;10.96;45.07
40592;BME280;26301;42.832;23.918;2023-04-27T09:04:46;92984.13;;;10.44;44.79
40592;BME280;26301;42.832;23.918;2023-04-27T09:07:16;92996.09;;;10.50;45.43
40592;BME280;26301;42.832;23.918;2023-04-27T09:09:43;93026.94;;;10.57;47.08
40592;BME280;26301;42.832;23.918;2023-04-27T09:12:14;93000.63;;;10.43;46.87
40592;BME280;26301;42.832;23.918;2023-04-27T09:14:40;93021.13;;;10.49;47.13
40592;BME280;26301;42.832;23.918;2023-04-27T09:17:07;93022.16;;;10.48;46.80
40592;BME280;26301;42.832;23.918;2023-04-27T09:19:34;93005.66;;;10.33;45.74
40592;BME280;26301;42.832;23.918;2023-04-27T09:22:10;92990.88;;;10.28;45.02
40592;BME280;26301;42.832;23.918;2023-04-27T09:24:38;93007.59;;;10.42;45.50
40592;BME280;26301;42.832;23.918;2023-04-27T09:27:24;92997.28;;;11.03;46.76
40592;BME280;26301;42.832;23.918;2023-04-27T09:29:51;92967.38;;;11.07;48.21
40592;BME280;26301;42.832;23.918;2023-04-27T09:32:17;92973.38;;;11.40;43.73
40592;BME280;26301;42.832;23.918;2023-04-27T09:34:45;92998.13;;;11.58;43.21
40592;BME280;26301;42.832;23.918;2023-04-27T09:37:11;93005.09;;;11.57;44.58
40592;BME280;26301;42.832;23.918;2023-04-27T09:39:38;92986.50;;;11.60;43.17
40592;BME280;26301;42.832;23.918;2023-04-27T09:42:07;93001.66;;;11.74;42.01
40592;BME280;26301;42.832;23.918;2023-04-27T09:44:34;92923.72;;;11.11;42.35
40592;BME280;26301;42.832;23.918;2023-04-27T09:47:01;92972.00;;;11.32;41.69
40592;BME280;26301;42.832;23.918;2023-04-27T09:49:28;92975.94;;;11.40;41.79
40592;BME280;26301;42.832;23.918;2023-04-27T09:51:55;92969.22;;;10.90;43.64
40592;BME280;26301;42.832;23.918;2023-04-27T09:54:25;92958.44;;;10.98;44.28
40592;BME280;26301;42.832;23.918;2023-04-27T09:57:18;92988.88;;;11.62;44.67
40592;BME280;26301;42.832;23.918;2023-04-27T10:05:37;92960.59;;;11.28;43.52
40592;BME280;26301;42.832;23.918;2023-04-27T10:08:09;92982.31;;;11.54;42.33
40592;BME280;26301;42.832;23.918;2023-04-27T10:10:46;92985.38;;;11.78;43.44
40592;BME280;26301;42.832;23.918;2023-04-27T10:13:23;92982.25;;;11.76;40.59
40592;BME280;26301;42.832;23.918;2023-04-27T10:15:49;92956.84;;;11.73;40.53
40592;BME280;26301;42.832;23.918;2023-04-27T10:18:29;92968.16;;;11.89;44.04
40592;BME280;26301;42.832;23.918;2023-04-27T10:20:57;92979.13;;;12.01;43.77
40592;BME280;26301;42.832;23.918;2023-04-27T10:23:47;92980.72;;;12.07;41.53
40592;BME280;26301;42.832;23.918;2023-04-27T10:26:24;92980.28;;;12.16;39.74
40592;BME280;26301;42.832;23.918;2023-04-27T10:29:07;92976.19;;;12.25;42.63
40592;BME280;26301;42.832;23.918;2023-04-27T10:31:33;92983.66;;;12.21;41.62
40592;BME280;26301;42.832;23.918;2023-04-27T10:34:09;92977.75;;;12.26;41.12
40592;BME280;26301;42.832;23.918;2023-04-27T10:36:39;92973.66;;;12.35;39.57
40592;BME280;26301;42.832;23.918;2023-04-27T10:39:19;92982.78;;;12.43;38.91
40592;BME280;26301;42.832;23.918;2023-04-27T10:41:52;92982.63;;;12.59;41.87
40592;BME280;26301;42.832;23.918;2023-04-27T10:44:25;92977.78;;;12.31;39.44
40592;BME280;26301;42.832;23.918;2023-04-27T10:47:15;92988.38;;;12.29;40.71
40592;BME280;26301;42.832;23.918;2023-04-27T10:49:44;92953.66;;;12.25;40.43
40592;BME280;26301;42.832;23.918;2023-04-27T10:52:10;92998.75;;;11.97;40.78
40592;BME280;26301;42.832;23.918;2023-04-27T10:54:36;92954.59;;;11.82;39.42
40592;BME280;26301;42.832;23.918;2023-04-27T10:57:09;92956.22;;;11.88;39.55
40592;BME280;26301;42.832;23.918;2023-04-27T10:59:47;92948.63;;;12.08;39.99
40592;BME280;26301;42.832;23.918;2023-04-27T11:02:14;92955.84;;;12.44;39.81
40592;BME280;26301;42.832;23.918;2023-04-27T11:04:40;92985.34;;;12.38;39.53
40592;BME280;26301;42.832;23.918;2023-04-27T11:07:08;92957.03;;;12.26;40.63
40592;BME280;26301;42.832;23.918;2023-04-27T11:09:36;92984.56;;;12.37;40.33
40592;BME280;26301;42.832;23.918;2023-04-27T11:12:07;92985.13;;;12.44;40.93
40592;BME280;26301;42.832;23.918;2023-04-27T11:14:34;92985.44;;;12.53;39.73
40592;BME280;26301;42.832;23.918;2023-04-27T11:17:02;92988.97;;;12.37;40.20
40592;BME280;26301;42.832;23.918;2023-04-27T11:19:28;92978.44;;;12.53;40.27
40592;BME280;26301;42.832;23.918;2023-04-27T11:22:06;92972.53;;;12.63;39.83
40592;BME280;26301;42.832;23.918;2023-04-27T11:24:32;92989.53;;;12.96;40.82
40592;BME280;26301;42.832;23.918;2023-04-27T11:26:58;92965.56;;;12.69;39.42
40592;BME280;26301;42.832;23.918;2023-04-27T11:29:25;92963.50;;;12.71;37.55
40592;BME280;26301;42.832;23.918;2023-04-27T11:32:02;92993.63;;;12.87;38.57
40592;BME280;26301;42.832;23.918;2023-04-27T11:34:29;92971.63;;;12.42;38.07
40592;BME280;26301;42.832;23.918;2023-04-27T11:37:05;92967.13;;;12.27;38.21
40592;BME280;26301;42.832;23.918;2023-04-27T11:39:39;93007.09;;;12.37;40.64
40592;BME280;26301;42.832;23.918;2023-04-27T11:42:23;92974.00;;;12.06;38.05
40592;BME280;26301;42.832;23.918;2023-04-27T11:44:56;92999.69;;;12.55;38.58
40592;BME280;26301;42.832;23.918;2023-04-27T11:47:25;92966.41;;;12.32;39.90
40592;BME280;26301;42.832;23.918;2023-04-27T11:49:55;92990.16;;;12.61;39.69
40592;BME280;26301;42.832;23.918;2023-04-27T11:52:28;92976.75;;;12.74;39.57
40592;BME280;26301;42.832;23.918;2023-04-27T11:54:54;92964.78;;;12.68;38.68
40592;BME280;26301;42.832;23.918;2023-04-27T11:57:25;92974.22;;;12.85;36.46
40592;BME280;26301;42.832;23.918;2023-04-27T11:59:52;92980.69;;;12.82;37.47
40592;BME280;26301;42.832;23.918;2023-04-27T12:02:21;93001.41;;;12.87;37.15
40592;BME280;26301;42.832;23.918;2023-04-27T12:04:48;92964.03;;;12.73;37.27
40592;BME280;26301;42.832;23.918;2023-04-27T12:07:15;92967.41;;;12.78;38.69
40592;BME280;26301;42.832;23.918;2023-04-27T12:09:41;92974.41;;;12.78;37.63
40592;BME280;26301;42.832;23.918;2023-04-27T12:12:08;92987.69;;;12.87;37.08
40592;BME280;26301;42.832;23.918;2023-04-27T12:14:34;92984.41;;;13.07;36.94
40592;BME280;26301;42.832;23.918;2023-04-27T12:17:01;92993.28;;;13.21;37.43
40592;BME280;26301;42.832;23.918;2023-04-27T12:19:26;92986.31;;;13.26;38.29
40592;BME280;26301;42.832;23.918;2023-04-27T12:21:54;92983.63;;;13.06;41.47
40592;BME280;26301;42.832;23.918;2023-04-27T12:24:20;92998.84;;;12.92;37.60
40592;BME280;26301;42.832;23.918;2023-04-27T12:26:47;92955.19;;;12.64;38.59
40592;BME280;26301;42.832;23.918;2023-04-27T12:29:14;93006.44;;;13.04;37.31
40592;BME280;26301;42.832;23.918;2023-04-27T12:31:40;92984.53;;;12.32;35.06
40592;BME280;26301;42.832;23.918;2023-04-27T12:34:06;93016.25;;;12.49;36.29
40592;BME280;26301;42.832;23.918;2023-04-27T12:36:32;93011.75;;;12.02;35.54
40592;BME280;26301;42.832;23.918;2023-04-27T12:39:11;93007.28;;;11.93;36.01
40592;BME280;26301;42.832;23.918;2023-04-27T12:41:38;92993.22;;;12.16;38.15
40592;BME280;26301;42.832;23.918;2023-04-27T12:44:04;93010.81;;;12.13;36.97
40592;BME280;26301;42.832;23.918;2023-04-27T12:46:30;92969.97;;;12.26;42.17
40592;BME280;26301;42.832;23.918;2023-04-27T12:48:56;92999.50;;;12.25;38.08
40592;BME280;26301;42.832;23.918;2023-04-27T12:51:23;92998.84;;;11.80;38.02
40592;BME280;26301;42.832;23.918;2023-04-27T12:53:49;92964.38;;;11.75;36.81
40592;BME280;26301;42.832;23.918;2023-04-27T12:56:15;92974.78;;;11.80;37.64
40592;BME280;26301;42.832;23.918;2023-04-27T12:58:41;93003.47;;;12.38;38.55
40592;BME280;26301;42.832;23.918;2023-04-27T13:01:07;93013.66;;;12.54;39.23
40592;BME280;26301;42.832;23.918;2023-04-27T13:03:43;93006.41;;;12.94;37.63